sensor_id;sensor_type;location;lat;lon;timestamp;P1;durP1;ratioP1;P2;durP2;ratioP2
71896;SDS011;59767;51.344;12.362;2023-07-30T00:00:13;10.27;;;3.10;;
71896;SDS011;59767;51.344;12.362;2023-07-30T00:03:17;7.32;;;2.95;;
71896;SDS011;59767;51.344;12.362;2023-07-30T00:06:21;7.70;;;2.97;;
71896;SDS011;59767;51.344;12.362;2023-07-30T00:09:25;7.75;;;2.78;;
71896;SDS011;59767;51.344;12.362;2023-07-30T00:12:29;5.93;;;2.80;;
71896;SDS011;59767;51.344;12.362;2023-07-30T00:15:33;8.52;;;3.05;;
71896;SDS011;59767;51.344;12.362;2023-07-30T00:18:37;7.63;;;2.95;;
71896;SDS011;59767;51.344;12.362;2023-07-30T00:21:42;6.32;;;2.85;;
71896;SDS011;59767;51.344;12.362;2023-07-30T00:24:50;8.57;;;2.90;;
71896;SDS011;59767;51.344;12.362;2023-07-30T00:27:54;5.93;;;2.63;;
71896;SDS011;59767;51.344;12.362;2023-07-30T00:30:58;8.18;;;2.78;;
71896;SDS011;59767;51.344;12.362;2023-07-30T00:34:01;7.63;;;3.28;;
71896;SDS011;59767;51.344;12.362;2023-07-30T00:37:05;6.68;;;2.70;;
71896;SDS011;59767;51.344;12.362;2023-07-30T00:40:09;9.60;;;2.67;;
71896;SDS011;59767;51.344;12.362;2023-07-30T00:43:13;6.82;;;2.90;;
71896;SDS011;59767;51.344;12.362;2023-07-30T00:46:18;10.13;;;2.90;;
71896;SDS011;59767;51.344;12.362;2023-07-30T00:49:22;6.25;;;2.92;;
71896;SDS011;59767;51.344;12.362;2023-07-30T00:52:26;9.05;;;3.22;;
71896;SDS011;59767;51.344;12.362;2023-07-30T00:55:31;6.20;;;2.60;;
71896;SDS011;59767;51.344;12.362;2023-07-30T00:58:35;7.15;;;2.92;;
71896;SDS011;59767;51.344;12.362;2023-07-30T01:01:40;7.95;;;2.80;;
71896;SDS011;59767;51.344;12.362;2023-07-30T01:04:46;6.85;;;2.85;;
71896;SDS011;59767;51.344;12.362;2023-07-30T01:07:50;7.68;;;2.60;;
71896;SDS011;59767;51.344;12.362;2023-07-30T01:10:54;7.72;;;3.00;;
71896;SDS011;59767;51.344;12.362;2023-07-30T01:14:00;5.72;;;2.50;;
71896;SDS011;59767;51.344;12.362;2023-07-30T01:17:04;10.23;;;3.60;;
71896;SDS011;59767;51.344;12.362;2023-07-30T01:20:09;5.25;;;2.60;;
71896;SDS011;59767;51.344;12.362;2023-07-30T01:23:14;6.47;;;2.53;;
71896;SDS011;59767;51.344;12.362;2023-07-30T01:26:25;7.72;;;3.10;;
71896;SDS011;59767;51.344;12.362;2023-07-30T01:33:00;6.60;;;3.22;;
71896;SDS011;59767;51.344;12.362;2023-07-30T01:36:05;8.55;;;2.90;;
71896;SDS011;59767;51.344;12.362;2023-07-30T01:39:14;7.40;;;3.00;;
71896;SDS011;59767;51.344;12.362;2023-07-30T01:42:19;6.53;;;2.60;;
71896;SDS011;59767;51.344;12.362;2023-07-30T01:45:23;7.15;;;2.97;;
71896;SDS011;59767;51.344;12.362;2023-07-30T01:48:27;6.78;;;2.90;;
71896;SDS011;59767;51.344;12.362;2023-07-30T01:51:32;6.43;;;2.85;;
71896;SDS011;59767;51.344;12.362;2023-07-30T01:54:36;8.60;;;2.50;;
71896;SDS011;59767;51.344;12.362;2023-07-30T01:57:40;7.45;;;2.67;;
71896;SDS011;59767;51.344;12.362;2023-07-30T02:00:44;8.13;;;2.50;;
71896;SDS011;59767;51.344;12.362;2023-07-30T02:03:48;11.45;;;2.75;;
71896;SDS011;59767;51.344;12.362;2023-07-30T02:06:52;5.93;;;2.65;;
71896;SDS011;59767;51.344;12.362;2023-07-30T02:09:57;7.47;;;2.67;;
71896;SDS011;59767;51.344;12.362;2023-07-30T02:13:00;11.68;;;2.95;;
71896;SDS011;59767;51.344;12.362;2023-07-30T02:16:05;8.88;;;2.30;;
71896;SDS011;59767;51.344;12.362;2023-07-30T02:19:09;8.65;;;2.47;;
71896;SDS011;59767;51.344;12.362;2023-07-30T02:22:14;12.88;;;2.88;;
71896;SDS011;59767;51.344;12.362;2023-07-30T02:25:18;10.95;;;2.90;;
71896;SDS011;59767;51.344;12.362;2023-07-30T02:28:22;9.13;;;2.60;;
71896;SDS011;59767;51.344;12.362;2023-07-30T02:31:27;10.77;;;3.30;;
71896;SDS011;59767;51.344;12.362;2023-07-30T02:34:31;7.10;;;2.50;;
71896;SDS011;59767;51.344;12.362;2023-07-30T02:37:35;8.00;;;2.67;;
71896;SDS011;59767;51.344;12.362;2023-07-30T02:40:39;7.68;;;2.58;;
71896;SDS011;59767;51.344;12.362;2023-07-30T02:43:43;7.72;;;2.50;;
71896;SDS011;59767;51.344;12.362;2023-07-30T02:46:47;9.23;;;2.78;;
71896;SDS011;59767;51.344;12.362;2023-07-30T02:49:51;8.88;;;2.55;;
71896;SDS011;59767;51.344;12.362;2023-07-30T02:52:55;9.18;;;2.78;;
71896;SDS011;59767;51.344;12.362;2023-07-30T02:55:59;10.27;;;2.60;;
71896;SDS011;59767;51.344;12.362;2023-07-30T02:59:03;9.15;;;2.53;;
71896;SDS011;59767;51.344;12.362;2023-07-30T03:02:07;7.05;;;2.42;;
71896;SDS011;59767;51.344;12.362;2023-07-30T03:05:11;8.35;;;2.70;;
71896;SDS011;59767;51.344;12.362;2023-07-30T03:08:15;7.18;;;2.38;;
71896;SDS011;59767;51.344;12.362;2023-07-30T03:11:19;5.97;;;2.50;;
71896;SDS011;59767;51.344;12.362;2023-07-30T03:14:23;10.18;;;2.42;;
71896;SDS011;59767;51.344;12.362;2023-07-30T03:17:27;6.70;;;2.50;;
71896;SDS011;59767;51.344;12.362;2023-07-30T03:20:32;11.52;;;2.92;;
71896;SDS011;59767;51.344;12.362;2023-07-30T03:23:36;7.93;;;2.58;;
71896;SDS011;59767;51.344;12.362;2023-07-30T03:26:40;5.82;;;2.55;;
71896;SDS011;59767;51.344;12.362;2023-07-30T03:29:45;9.48;;;2.70;;
71896;SDS011;59767;51.344;12.362;2023-07-30T03:32:49;5.25;;;2.47;;
71896;SDS011;59767;51.344;12.362;2023-07-30T03:35:53;7.85;;;2.90;;
71896;SDS011;59767;51.344;12.362;2023-07-30T03:38:57;9.75;;;2.72;;
71896;SDS011;59767;51.344;12.362;2023-07-30T03:42:01;8.15;;;2.55;;
71896;SDS011;59767;51.344;12.362;2023-07-30T03:45:06;10.63;;;2.72;;
71896;SDS011;59767;51.344;12.362;2023-07-30T03:48:10;6.10;;;2.40;;
71896;SDS011;59767;51.344;12.362;2023-07-30T03:51:15;8.10;;;2.20;;
71896;SDS011;59767;51.344;12.362;2023-07-30T03:54:19;7.60;;;2.50;;
71896;SDS011;59767;51.344;12.362;2023-07-30T03:57:23;6.93;;;2.70;;
71896;SDS011;59767;51.344;12.362;2023-07-30T04:00:27;7.35;;;2.50;;
71896;SDS011;59767;51.344;12.362;2023-07-30T04:03:33;5.32;;;2.47;;
71896;SDS011;59767;51.344;12.362;2023-07-30T04:06:37;8.45;;;2.45;;
71896;SDS011;59767;51.344;12.362;2023-07-30T04:09:41;7.97;;;2.50;;
71896;SDS011;59767;51.344;12.362;2023-07-30T04:12:46;7.20;;;2.60;;
71896;SDS011;59767;51.344;12.362;2023-07-30T04:15:50;5.70;;;2.50;;
71896;SDS011;59767;51.344;12.362;2023-07-30T04:18:54;8.25;;;2.60;;
71896;SDS011;59767;51.344;12.362;2023-07-30T04:21:59;8.18;;;2.40;;
71896;SDS011;59767;51.344;12.362;2023-07-30T04:25:03;8.07;;;2.65;;
71896;SDS011;59767;51.344;12.362;2023-07-30T04:28:07;5.95;;;2.40;;
71896;SDS011;59767;51.344;12.362;2023-07-30T04:31:11;7.07;;;2.30;;
71896;SDS011;59767;51.344;12.362;2023-07-30T04:34:16;8.77;;;2.78;;
71896;SDS011;59767;51.344;12.362;2023-07-30T04:37:20;7.13;;;2.38;;
71896;SDS011;59767;51.344;12.362;2023-07-30T04:40:24;6.43;;;2.50;;
71896;SDS011;59767;51.344;12.362;2023-07-30T04:43:28;9.38;;;3.00;;
71896;SDS011;59767;51.344;12.362;2023-07-30T04:46:33;10.18;;;3.05;;
71896;SDS011;59767;51.344;12.362;2023-07-30T04:49:37;9.55;;;3.00;;
71896;SDS011;59767;51.344;12.362;2023-07-30T04:52:44;7.93;;;2.80;;
71896;SDS011;59767;51.344;12.362;2023-07-30T04:55:48;7.43;;;2.65;;
71896;SDS011;59767;51.344;12.362;2023-07-30T04:58:58;8.35;;;2.85;;
71896;SDS011;59767;51.344;12.362;2023-07-30T05:02:02;6.47;;;2.60;;
71896;SDS011;59767;51.344;12.362;2023-07-30T05:05:06;7.47;;;2.80;;
71896;SDS011;59767;51.344;12.362;2023-07-30T05:08:11;7.32;;;2.65;;
71896;SDS011;59767;51.344;12.362;2023-07-30T05:11:15;6.70;;;2.50;;
71896;SDS011;59767;51.344;12.362;2023-07-30T05:14:19;6.88;;;2.78;;
71896;SDS011;59767;51.344;12.362;2023-07-30T05:17:23;9.02;;;2.85;;
71896;SDS011;59767;51.344;12.362;2023-07-30T05:20:28;8.00;;;2.83;;
71896;SDS011;59767;51.344;12.362;2023-07-30T05:23:31;8.55;;;3.00;;
71896;SDS011;59767;51.344;12.362;2023-07-30T05:26:36;10.48;;;2.80;;
71896;SDS011;59767;51.344;12.362;2023-07-30T05:29:40;8.65;;;2.83;;
71896;SDS011;59767;51.344;12.362;2023-07-30T05:32:44;8.40;;;2.65;;
71896;SDS011;59767;51.344;12.362;2023-07-30T05:35:49;8.95;;;2.55;;
71896;SDS011;59767;51.344;12.362;2023-07-30T05:38:53;7.13;;;2.58;;
71896;SDS011;59767;51.344;12.362;2023-07-30T05:41:57;9.40;;;2.55;;
71896;SDS011;59767;51.344;12.362;2023-07-30T05:45:02;10.65;;;2.80;;
71896;SDS011;59767;51.344;12.362;2023-07-30T05:48:06;9.45;;;2.67;;
71896;SDS011;59767;51.344;12.362;2023-07-30T05:51:10;8.00;;;2.97;;
71896;SDS011;59767;51.344;12.362;2023-07-30T05:54:14;7.35;;;2.55;;
71896;SDS011;59767;51.344;12.362;2023-07-30T05:57:19;12.70;;;2.63;;
71896;SDS011;59767;51.344;12.362;2023-07-30T06:00:23;8.90;;;2.70;;
71896;SDS011;59767;51.344;12.362;2023-07-30T06:03:27;7.95;;;2.80;;
71896;SDS011;59767;51.344;12.362;2023-07-30T06:06:32;7.95;;;2.67;;
71896;SDS011;59767;51.344;12.362;2023-07-30T06:09:36;8.55;;;2.40;;
71896;SDS011;59767;51.344;12.362;2023-07-30T06:12:40;10.90;;;2.30;;
71896;SDS011;59767;51.344;12.362;2023-07-30T06:15:45;11.82;;;2.50;;
71896;SDS011;59767;51.344;12.362;2023-07-30T06:18:49;9.27;;;2.40;;
71896;SDS011;59767;51.344;12.362;2023-07-30T06:21:53;10.63;;;2.40;;
71896;SDS011;59767;51.344;12.362;2023-07-30T06:24:57;7.90;;;2.30;;
71896;SDS011;59767;51.344;12.362;2023-07-30T06:28:02;7.57;;;2.30;;
71896;SDS011;59767;51.344;12.362;2023-07-30T06:31:07;10.95;;;2.55;;
71896;SDS011;59767;51.344;12.362;2023-07-30T06:34:11;11.15;;;2.33;;
71896;SDS011;59767;51.344;12.362;2023-07-30T06:37:14;8.43;;;2.40;;
71896;SDS011;59767;51.344;12.362;2023-07-30T06:40:19;9.52;;;2.50;;
71896;SDS011;59767;51.344;12.362;2023-07-30T06:43:23;8.10;;;2.53;;
71896;SDS011;59767;51.344;12.362;2023-07-30T06:46:27;5.13;;;2.33;;
71896;SDS011;59767;51.344;12.362;2023-07-30T06:49:32;5.53;;;2.10;;
71896;SDS011;59767;51.344;12.362;2023-07-30T06:52:37;6.30;;;2.10;;
71896;SDS011;59767;51.344;12.362;2023-07-30T06:55:42;6.72;;;2.42;;
71896;SDS011;59767;51.344;12.362;2023-07-30T06:58:46;7.45;;;2.50;;
71896;SDS011;59767;51.344;12.362;2023-07-30T07:01:50;5.97;;;2.33;;
71896;SDS011;59767;51.344;12.362;2023-07-30T07:04:53;7.40;;;2.40;;
71896;SDS011;59767;51.344;12.362;2023-07-30T07:07:58;6.72;;;2.30;;
71896;SDS011;59767;51.344;12.362;2023-07-30T07:11:02;8.95;;;2.40;;
71896;SDS011;59767;51.344;12.362;2023-07-30T07:14:07;11.15;;;2.40;;
71896;SDS011;59767;51.344;12.362;2023-07-30T07:17:11;4.85;;;2.00;;
71896;SDS011;59767;51.344;12.362;2023-07-30T07:20:15;8.52;;;2.10;;
71896;SDS011;59767;51.344;12.362;2023-07-30T07:23:20;8.50;;;2.22;;
71896;SDS011;59767;51.344;12.362;2023-07-30T07:26:24;9.90;;;2.28;;
71896;SDS011;59767;51.344;12.362;2023-07-30T07:29:28;7.45;;;2.20;;
71896;SDS011;59767;51.344;12.362;2023-07-30T07:32:32;15.35;;;2.63;;
71896;SDS011;59767;51.344;12.362;2023-07-30T07:35:42;11.00;;;2.38;;
71896;SDS011;59767;51.344;12.362;2023-07-30T07:38:46;6.55;;;2.00;;
71896;SDS011;59767;51.344;12.362;2023-07-30T07:41:50;6.90;;;2.03;;
71896;SDS011;59767;51.344;12.362;2023-07-30T07:44:54;10.50;;;2.10;;
71896;SDS011;59767;51.344;12.362;2023-07-30T07:47:59;4.78;;;1.88;;
71896;SDS011;59767;51.344;12.362;2023-07-30T07:51:03;7.88;;;2.25;;
71896;SDS011;59767;51.344;12.362;2023-07-30T07:54:07;5.10;;;2.20;;
71896;SDS011;59767;51.344;12.362;2023-07-30T07:57:11;5.68;;;2.15;;
71896;SDS011;59767;51.344;12.362;2023-07-30T08:00:17;9.00;;;2.08;;
71896;SDS011;59767;51.344;12.362;2023-07-30T08:03:21;6.22;;;2.10;;
71896;SDS011;59767;51.344;12.362;2023-07-30T08:06:26;6.40;;;2.38;;
71896;SDS011;59767;51.344;12.362;2023-07-30T08:09:31;6.70;;;2.20;;
71896;SDS011;59767;51.344;12.362;2023-07-30T08:12:35;6.03;;;2.10;;
71896;SDS011;59767;51.344;12.362;2023-07-30T08:15:39;9.43;;;2.42;;
71896;SDS011;59767;51.344;12.362;2023-07-30T08:18:44;7.00;;;2.50;;
71896;SDS011;59767;51.344;12.362;2023-07-30T08:21:48;7.35;;;2.13;;
71896;SDS011;59767;51.344;12.362;2023-07-30T08:24:52;8.32;;;2.28;;
71896;SDS011;59767;51.344;12.362;2023-07-30T08:27:57;5.47;;;2.25;;
71896;SDS011;59767;51.344;12.362;2023-07-30T08:31:01;6.22;;;2.20;;
71896;SDS011;59767;51.344;12.362;2023-07-30T08:34:05;6.75;;;2.30;;
71896;SDS011;59767;51.344;12.362;2023-07-30T08:37:10;6.75;;;2.10;;
71896;SDS011;59767;51.344;12.362;2023-07-30T08:40:15;4.72;;;2.17;;
71896;SDS011;59767;51.344;12.362;2023-07-30T08:43:21;5.50;;;2.20;;
71896;SDS011;59767;51.344;12.362;2023-07-30T08:46:25;6.78;;;2.20;;
71896;SDS011;59767;51.344;12.362;2023-07-30T08:49:30;9.43;;;2.33;;
71896;SDS011;59767;51.344;12.362;2023-07-30T08:52:37;5.40;;;2.00;;
71896;SDS011;59767;51.344;12.362;2023-07-30T08:55:41;9.82;;;2.20;;
71896;SDS011;59767;51.344;12.362;2023-07-30T08:58:45;6.70;;;2.30;;
71896;SDS011;59767;51.344;12.362;2023-07-30T09:01:51;4.68;;;1.90;;
71896;SDS011;59767;51.344;12.362;2023-07-30T09:04:58;3.28;;;1.70;;
71896;SDS011;59767;51.344;12.362;2023-07-30T09:08:04;6.57;;;1.90;;
71896;SDS011;59767;51.344;12.362;2023-07-30T09:11:09;5.03;;;2.00;;
71896;SDS011;59767;51.344;12.362;2023-07-30T09:14:14;5.57;;;2.00;;
71896;SDS011;59767;51.344;12.362;2023-07-30T09:17:24;6.25;;;2.00;;
71896;SDS011;59767;51.344;12.362;2023-07-30T09:20:36;3.60;;;1.75;;
71896;SDS011;59767;51.344;12.362;2023-07-30T09:23:42;3.70;;;1.80;;
71896;SDS011;59767;51.344;12.362;2023-07-30T09:26:47;4.40;;;1.90;;
71896;SDS011;59767;51.344;12.362;2023-07-30T09:29:52;3.22;;;1.90;;
71896;SDS011;59767;51.344;12.362;2023-07-30T09:32:57;3.47;;;1.70;;
71896;SDS011;59767;51.344;12.362;2023-07-30T09:36:02;5.88;;;1.73;;
71896;SDS011;59767;51.344;12.362;2023-07-30T09:39:14;6.28;;;2.00;;
71896;SDS011;59767;51.344;12.362;2023-07-30T09:42:19;4.70;;;2.05;;
71896;SDS011;59767;51.344;12.362;2023-07-30T09:45:24;7.45;;;1.75;;
71896;SDS011;59767;51.344;12.362;2023-07-30T09:48:29;4.80;;;1.90;;
71896;SDS011;59767;51.344;12.362;2023-07-30T09:51:36;7.20;;;1.75;;
71896;SDS011;59767;51.344;12.362;2023-07-30T09:54:42;4.47;;;1.60;;
71896;SDS011;59767;51.344;12.362;2023-07-30T09:57:46;4.85;;;1.60;;
71896;SDS011;59767;51.344;12.362;2023-07-30T10:00:51;5.53;;;1.55;;
71896;SDS011;59767;51.344;12.362;2023-07-30T10:03:56;5.00;;;2.50;;
71896;SDS011;59767;51.344;12.362;2023-07-30T10:07:02;4.15;;;1.73;;
71896;SDS011;59767;51.344;12.362;2023-07-30T10:10:11;4.57;;;1.63;;
71896;SDS011;59767;51.344;12.362;2023-07-30T10:13:16;5.45;;;1.50;;
71896;SDS011;59767;51.344;12.362;2023-07-30T10:16:25;3.17;;;1.63;;
71896;SDS011;59767;51.344;12.362;2023-07-30T10:19:31;3.95;;;1.60;;
71896;SDS011;59767;51.344;12.362;2023-07-30T10:22:36;5.82;;;1.60;;
71896;SDS011;59767;51.344;12.362;2023-07-30T10:25:47;4.68;;;1.67;;
71896;SDS011;59767;51.344;12.362;2023-07-30T10:29:09;3.78;;;1.48;;
71896;SDS011;59767;51.344;12.362;2023-07-30T10:32:20;4.55;;;1.63;;
71896;SDS011;59767;51.344;12.362;2023-07-30T10:35:44;3.45;;;1.33;;
71896;SDS011;59767;51.344;12.362;2023-07-30T10:38:52;5.97;;;1.48;;
71896;SDS011;59767;51.344;12.362;2023-07-30T10:41:57;5.47;;;1.30;;
71896;SDS011;59767;51.344;12.362;2023-07-30T10:45:07;2.20;;;1.40;;
71896;SDS011;59767;51.344;12.362;2023-07-30T10:48:11;4.32;;;1.60;;
71896;SDS011;59767;51.344;12.362;2023-07-30T10:51:16;7.45;;;1.30;;
71896;SDS011;59767;51.344;12.362;2023-07-30T10:54:22;6.50;;;1.40;;
71896;SDS011;59767;51.344;12.362;2023-07-30T10:57:31;7.30;;;1.50;;
71896;SDS011;59767;51.344;12.362;2023-07-30T11:00:37;3.40;;;1.60;;
71896;SDS011;59767;51.344;12.362;2023-07-30T11:03:42;4.72;;;1.20;;
71896;SDS011;59767;51.344;12.362;2023-07-30T11:06:47;7.00;;;1.38;;
71896;SDS011;59767;51.344;12.362;2023-07-30T11:09:59;2.03;;;1.15;;
71896;SDS011;59767;51.344;12.362;2023-07-30T11:13:05;4.22;;;1.20;;
71896;SDS011;59767;51.344;12.362;2023-07-30T11:16:09;3.15;;;1.35;;
71896;SDS011;59767;51.344;12.362;2023-07-30T11:19:14;3.55;;;1.10;;
71896;SDS011;59767;51.344;12.362;2023-07-30T11:22:18;1.90;;;1.10;;
71896;SDS011;59767;51.344;12.362;2023-07-30T11:25:33;2.88;;;1.20;;
71896;SDS011;59767;51.344;12.362;2023-07-30T11:28:38;4.95;;;1.23;;
71896;SDS011;59767;51.344;12.362;2023-07-30T11:31:44;4.00;;;1.27;;
71896;SDS011;59767;51.344;12.362;2023-07-30T11:34:48;4.40;;;1.20;;
71896;SDS011;59767;51.344;12.362;2023-07-30T11:37:53;2.97;;;1.20;;
71896;SDS011;59767;51.344;12.362;2023-07-30T11:40:57;2.60;;;1.10;;
71896;SDS011;59767;51.344;12.362;2023-07-30T11:44:02;2.90;;;1.08;;
71896;SDS011;59767;51.344;12.362;2023-07-30T11:47:07;2.30;;;1.30;;
71896;SDS011;59767;51.344;12.362;2023-07-30T11:50:13;3.60;;;1.15;;
71896;SDS011;59767;51.344;12.362;2023-07-30T11:53:18;1.85;;;1.17;;
71896;SDS011;59767;51.344;12.362;2023-07-30T11:56:23;1.77;;;1.05;;
71896;SDS011;59767;51.344;12.362;2023-07-30T11:59:31;4.32;;;1.35;;
71896;SDS011;59767;51.344;12.362;2023-07-30T12:02:35;2.63;;;1.20;;
71896;SDS011;59767;51.344;12.362;2023-07-30T12:05:39;3.40;;;1.27;;
71896;SDS011;59767;51.344;12.362;2023-07-30T12:08:44;3.17;;;1.30;;
71896;SDS011;59767;51.344;12.362;2023-07-30T12:11:49;3.08;;;1.30;;
71896;SDS011;59767;51.344;12.362;2023-07-30T12:14:56;4.03;;;1.60;;
71896;SDS011;59767;51.344;12.362;2023-07-30T12:18:00;5.05;;;1.10;;
71896;SDS011;59767;51.344;12.362;2023-07-30T12:21:04;3.95;;;1.30;;
71896;SDS011;59767;51.344;12.362;2023-07-30T12:24:11;5.82;;;1.33;;
71896;SDS011;59767;51.344;12.362;2023-07-30T12:27:15;2.30;;;1.10;;
71896;SDS011;59767;51.344;12.362;2023-07-30T12:30:19;5.20;;;1.23;;
71896;SDS011;59767;51.344;12.362;2023-07-30T12:33:24;6.07;;;1.40;;
71896;SDS011;59767;51.344;12.362;2023-07-30T12:36:28;4.65;;;1.40;;
71896;SDS011;59767;51.344;12.362;2023-07-30T12:39:32;6.25;;;1.45;;
71896;SDS011;59767;51.344;12.362;2023-07-30T12:42:36;2.67;;;1.30;;
71896;SDS011;59767;51.344;12.362;2023-07-30T12:45:40;4.70;;;1.40;;
71896;SDS011;59767;51.344;12.362;2023-07-30T12:48:44;2.47;;;1.15;;
71896;SDS011;59767;51.344;12.362;2023-07-30T12:51:48;3.33;;;1.25;;
71896;SDS011;59767;51.344;12.362;2023-07-30T12:54:53;4.80;;;1.60;;
71896;SDS011;59767;51.344;12.362;2023-07-30T12:57:57;7.15;;;1.55;;
71896;SDS011;59767;51.344;12.362;2023-07-30T13:01:02;3.95;;;1.42;;
71896;SDS011;59767;51.344;12.362;2023-07-30T13:04:08;12.15;;;2.40;;
71896;SDS011;59767;51.344;12.362;2023-07-30T13:07:13;7.47;;;2.00;;
71896;SDS011;59767;51.344;12.362;2023-07-30T13:10:17;5.47;;;1.85;;
71896;SDS011;59767;51.344;12.362;2023-07-30T13:13:21;4.82;;;1.73;;
71896;SDS011;59767;51.344;12.362;2023-07-30T13:16:27;6.88;;;1.70;;
71896;SDS011;59767;51.344;12.362;2023-07-30T13:19:32;7.55;;;2.10;;
71896;SDS011;59767;51.344;12.362;2023-07-30T13:22:37;3.67;;;1.58;;
71896;SDS011;59767;51.344;12.362;2023-07-30T13:25:41;5.72;;;2.00;;
71896;SDS011;59767;51.344;12.362;2023-07-30T13:28:45;6.50;;;1.88;;
71896;SDS011;59767;51.344;12.362;2023-07-30T13:31:49;5.90;;;1.80;;
71896;SDS011;59767;51.344;12.362;2023-07-30T13:34:54;6.68;;;2.10;;
71896;SDS011;59767;51.344;12.362;2023-07-30T13:37:58;6.90;;;2.13;;
71896;SDS011;59767;51.344;12.362;2023-07-30T13:41:02;4.85;;;1.90;;
71896;SDS011;59767;51.344;12.362;2023-07-30T13:44:06;8.23;;;2.13;;
71896;SDS011;59767;51.344;12.362;2023-07-30T13:47:10;7.80;;;2.47;;
71896;SDS011;59767;51.344;12.362;2023-07-30T13:50:18;7.65;;;2.08;;
71896;SDS011;59767;51.344;12.362;2023-07-30T13:53:22;4.72;;;1.98;;
71896;SDS011;59767;51.344;12.362;2023-07-30T13:56:27;5.82;;;2.15;;
71896;SDS011;59767;51.344;12.362;2023-07-30T13:59:32;3.45;;;1.60;;
71896;SDS011;59767;51.344;12.362;2023-07-30T14:02:35;4.35;;;1.90;;
71896;SDS011;59767;51.344;12.362;2023-07-30T14:05:40;5.07;;;1.90;;
71896;SDS011;59767;51.344;12.362;2023-07-30T14:08:44;6.97;;;2.30;;
71896;SDS011;59767;51.344;12.362;2023-07-30T14:11:48;9.23;;;2.33;;
71896;SDS011;59767;51.344;12.362;2023-07-30T14:14:52;6.30;;;2.20;;
71896;SDS011;59767;51.344;12.362;2023-07-30T14:17:56;8.35;;;2.17;;
71896;SDS011;59767;51.344;12.362;2023-07-30T14:21:00;8.77;;;2.35;;
71896;SDS011;59767;51.344;12.362;2023-07-30T14:24:06;4.65;;;1.67;;
71896;SDS011;59767;51.344;12.362;2023-07-30T14:27:10;4.10;;;1.70;;
71896;SDS011;59767;51.344;12.362;2023-07-30T14:30:15;3.78;;;1.90;;
71896;SDS011;59767;51.344;12.362;2023-07-30T14:33:19;5.70;;;2.00;;
71896;SDS011;59767;51.344;12.362;2023-07-30T14:36:23;6.95;;;2.10;;
71896;SDS011;59767;51.344;12.362;2023-07-30T14:39:27;6.85;;;1.83;;
71896;SDS011;59767;51.344;12.362;2023-07-30T14:42:31;4.75;;;1.70;;
71896;SDS011;59767;51.344;12.362;2023-07-30T14:45:36;7.43;;;1.80;;
71896;SDS011;59767;51.344;12.362;2023-07-30T14:48:40;8.10;;;1.98;;
71896;SDS011;59767;51.344;12.362;2023-07-30T14:51:45;4.82;;;1.60;;
71896;SDS011;59767;51.344;12.362;2023-07-30T14:54:49;7.55;;;2.00;;
71896;SDS011;59767;51.344;12.362;2023-07-30T14:57:55;7.45;;;2.00;;
71896;SDS011;59767;51.344;12.362;2023-07-30T15:00:59;6.65;;;2.08;;
71896;SDS011;59767;51.344;12.362;2023-07-30T15:04:03;8.75;;;2.15;;
71896;SDS011;59767;51.344;12.362;2023-07-30T15:07:10;8.73;;;2.20;;
71896;SDS011;59767;51.344;12.362;2023-07-30T15:10:14;11.32;;;2.35;;
71896;SDS011;59767;51.344;12.362;2023-07-30T15:13:20;7.43;;;2.30;;
71896;SDS011;59767;51.344;12.362;2023-07-30T15:16:27;6.93;;;2.10;;
71896;SDS011;59767;51.344;12.362;2023-07-30T15:19:31;7.38;;;2.35;;
71896;SDS011;59767;51.344;12.362;2023-07-30T15:22:35;11.32;;;2.40;;
71896;SDS011;59767;51.344;12.362;2023-07-30T15:25:39;5.70;;;2.17;;
71896;SDS011;59767;51.344;12.362;2023-07-30T15:28:43;6.75;;;2.20;;
71896;SDS011;59767;51.344;12.362;2023-07-30T15:31:51;6.85;;;2.70;;
71896;SDS011;59767;51.344;12.362;2023-07-30T15:34:55;11.43;;;3.00;;
71896;SDS011;59767;51.344;12.362;2023-07-30T15:37:59;8.07;;;2.63;;
71896;SDS011;59767;51.344;12.362;2023-07-30T15:41:03;6.78;;;2.80;;
71896;SDS011;59767;51.344;12.362;2023-07-30T15:44:08;5.55;;;2.50;;
71896;SDS011;59767;51.344;12.362;2023-07-30T15:47:12;8.82;;;2.92;;
71896;SDS011;59767;51.344;12.362;2023-07-30T15:50:17;8.77;;;2.00;;
71896;SDS011;59767;51.344;12.362;2023-07-30T15:53:21;5.15;;;1.80;;
71896;SDS011;59767;51.344;12.362;2023-07-30T15:56:26;6.18;;;2.00;;
71896;SDS011;59767;51.344;12.362;2023-07-30T15:59:29;6.78;;;2.25;;
71896;SDS011;59767;51.344;12.362;2023-07-30T16:02:34;4.45;;;1.65;;
71896;SDS011;59767;51.344;12.362;2023-07-30T16:05:38;4.65;;;1.60;;
71896;SDS011;59767;51.344;12.362;2023-07-30T16:08:50;6.22;;;1.83;;
71896;SDS011;59767;51.344;12.362;2023-07-30T16:11:55;7.95;;;1.70;;
71896;SDS011;59767;51.344;12.362;2023-07-30T16:14:59;5.35;;;1.60;;
71896;SDS011;59767;51.344;12.362;2023-07-30T16:18:03;6.75;;;1.70;;
71896;SDS011;59767;51.344;12.362;2023-07-30T16:21:07;4.25;;;1.70;;
71896;SDS011;59767;51.344;12.362;2023-07-30T16:24:12;4.57;;;1.80;;
71896;SDS011;59767;51.344;12.362;2023-07-30T16:27:17;4.18;;;1.63;;
71896;SDS011;59767;51.344;12.362;2023-07-30T16:30:21;6.55;;;2.00;;
71896;SDS011;59767;51.344;12.362;2023-07-30T16:33:29;4.97;;;1.90;;
71896;SDS011;59767;51.344;12.362;2023-07-30T16:36:34;3.78;;;1.75;;
71896;SDS011;59767;51.344;12.362;2023-07-30T16:39:38;5.60;;;2.10;;
71896;SDS011;59767;51.344;12.362;2023-07-30T16:42:42;4.18;;;2.00;;
71896;SDS011;59767;51.344;12.362;2023-07-30T16:45:46;5.55;;;2.78;;
71896;SDS011;59767;51.344;12.362;2023-07-30T16:48:49;7.13;;;2.22;;
71896;SDS011;59767;51.344;12.362;2023-07-30T16:51:53;4.90;;;1.98;;
71896;SDS011;59767;51.344;12.362;2023-07-30T16:54:57;4.32;;;1.90;;
71896;SDS011;59767;51.344;12.362;2023-07-30T16:58:02;6.63;;;1.88;;
71896;SDS011;59767;51.344;12.362;2023-07-30T17:01:06;5.20;;;1.98;;
71896;SDS011;59767;51.344;12.362;2023-07-30T17:04:12;7.18;;;1.95;;
71896;SDS011;59767;51.344;12.362;2023-07-30T17:07:15;8.82;;;1.90;;
71896;SDS011;59767;51.344;12.362;2023-07-30T17:10:19;6.00;;;2.03;;
71896;SDS011;59767;51.344;12.362;2023-07-30T17:13:24;6.53;;;2.00;;
71896;SDS011;59767;51.344;12.362;2023-07-30T17:16:28;8.98;;;2.13;;
71896;SDS011;59767;51.344;12.362;2023-07-30T17:19:33;5.35;;;1.83;;
71896;SDS011;59767;51.344;12.362;2023-07-30T17:22:37;5.55;;;1.90;;
71896;SDS011;59767;51.344;12.362;2023-07-30T17:25:49;5.78;;;2.17;;
71896;SDS011;59767;51.344;12.362;2023-07-30T17:28:54;8.98;;;2.58;;
71896;SDS011;59767;51.344;12.362;2023-07-30T17:31:58;6.43;;;2.30;;
71896;SDS011;59767;51.344;12.362;2023-07-30T17:35:03;8.07;;;2.10;;
71896;SDS011;59767;51.344;12.362;2023-07-30T17:38:10;8.38;;;2.30;;
71896;SDS011;59767;51.344;12.362;2023-07-30T17:41:15;7.50;;;2.65;;
71896;SDS011;59767;51.344;12.362;2023-07-30T17:44:19;7.32;;;2.30;;
71896;SDS011;59767;51.344;12.362;2023-07-30T17:47:23;9.10;;;2.20;;
71896;SDS011;59767;51.344;12.362;2023-07-30T17:50:30;8.82;;;2.58;;
71896;SDS011;59767;51.344;12.362;2023-07-30T17:53:34;7.85;;;2.40;;
71896;SDS011;59767;51.344;12.362;2023-07-30T17:56:38;9.00;;;2.75;;
71896;SDS011;59767;51.344;12.362;2023-07-30T17:59:42;9.93;;;2.95;;
71896;SDS011;59767;51.344;12.362;2023-07-30T18:02:46;10.10;;;2.83;;
71896;SDS011;59767;51.344;12.362;2023-07-30T18:05:50;9.55;;;3.13;;
71896;SDS011;59767;51.344;12.362;2023-07-30T18:08:55;6.07;;;2.65;;
71896;SDS011;59767;51.344;12.362;2023-07-30T18:12:00;9.10;;;3.10;;
71896;SDS011;59767;51.344;12.362;2023-07-30T18:15:05;7.22;;;3.00;;
71896;SDS011;59767;51.344;12.362;2023-07-30T18:18:10;9.05;;;3.30;;